createdAt,value
2019-04-05T00:00:35.070Z,99.90
2019-04-05T00:03:03.743Z,99.90
2019-04-05T00:05:32.153Z,99.90
2019-04-05T00:08:00.563Z,99.90
2019-04-05T00:10:29.073Z,99.90
2019-04-05T00:12:57.526Z,99.90
2019-04-05T00:15:26.011Z,99.90
2019-04-05T00:17:54.446Z,99.90
2019-04-05T00:20:22.914Z,99.90
2019-04-05T00:22:51.394Z,99.90
2019-04-05T00:25:19.993Z,99.90
2019-04-05T00:27:48.404Z,99.90
2019-04-05T00:30:17.060Z,99.90
2019-04-05T00:32:45.513Z,99.90
2019-04-05T00:35:14.019Z,99.90
2019-04-05T00:37:42.473Z,99.90
2019-04-05T00:40:11.521Z,99.90
2019-04-05T00:42:39.934Z,99.90
2019-04-05T00:45:08.794Z,99.90
2019-04-05T00:47:37.294Z,99.90
2019-04-05T00:50:07.562Z,99.90
2019-04-05T00:52:35.979Z,99.90
2019-04-05T00:55:06.317Z,99.90
2019-04-05T00:57:34.727Z,99.90
2019-04-05T01:00:03.284Z,99.90
2019-04-05T01:02:31.943Z,99.90
2019-04-05T01:05:00.362Z,99.90
2019-04-05T01:07:28.782Z,99.90
2019-04-05T01:09:57.719Z,99.90
2019-04-05T01:12:26.304Z,99.90
2019-04-05T01:14:55.271Z,99.90
2019-04-05T01:17:25.162Z,99.90
2019-04-05T01:19:57.026Z,99.90
2019-04-05T01:22:27.832Z,99.90
2019-04-05T01:24:57.583Z,99.90
2019-04-05T01:27:26.947Z,99.90
2019-04-05T01:29:55.556Z,99.90
2019-04-05T01:32:24.114Z,99.90
2019-04-05T01:34:52.557Z,99.90
2019-04-05T01:37:21.914Z,99.90
2019-04-05T01:39:50.353Z,99.90
2019-04-05T01:42:18.872Z,99.90
2019-04-05T01:44:47.624Z,99.90
2019-04-05T01:47:16.116Z,99.90
2019-04-05T01:49:44.576Z,99.90
2019-04-05T01:52:13.284Z,99.90
2019-04-05T01:54:41.705Z,99.90
2019-04-05T01:57:10.323Z,99.90
2019-04-05T01:59:38.898Z,99.90
2019-04-05T02:02:07.331Z,99.90
2019-04-05T02:04:35.813Z,99.90
2019-04-05T02:07:04.391Z,99.90
2019-04-05T02:09:32.966Z,99.90
2019-04-05T02:12:01.378Z,99.90
2019-04-05T02:17:03.714Z,99.90
2019-04-05T02:19:32.129Z,99.90
2019-04-05T02:22:00.560Z,99.90
2019-04-05T02:24:29.248Z,99.90
2019-04-05T02:26:57.651Z,99.90
2019-04-05T02:29:26.073Z,99.90
2019-04-05T02:31:54.718Z,99.90
2019-04-05T02:34:23.196Z,99.90
2019-04-05T02:36:51.757Z,99.90
2019-04-05T02:39:20.406Z,99.90
2019-04-05T02:41:49.622Z,99.90
2019-04-05T02:44:18.887Z,99.90
2019-04-05T02:46:47.955Z,99.90
2019-04-05T02:49:16.962Z,99.90
2019-04-05T02:51:47.188Z,99.90
2019-04-05T02:54:16.376Z,99.90
2019-04-05T02:56:45.270Z,99.90
2019-04-05T02:59:15.023Z,99.90
2019-04-05T03:01:44.342Z,99.90
2019-04-05T03:04:13.189Z,99.90
2019-04-05T03:06:42.120Z,99.90
2019-04-05T03:09:11.359Z,99.90
2019-04-05T03:11:40.677Z,99.90
2019-04-05T03:14:10.334Z,99.90
2019-04-05T03:16:42.261Z,99.90
2019-04-05T03:19:13.843Z,99.90
2019-04-05T03:21:45.639Z,99.90
2019-04-05T03:24:17.140Z,99.90
2019-04-05T03:26:51.646Z,99.90
2019-04-05T03:29:20.194Z,99.90
2019-04-05T03:31:48.753Z,99.90
2019-04-05T03:34:17.756Z,99.90
2019-04-05T03:36:46.380Z,99.90
2019-04-05T03:39:15.225Z,99.90
2019-04-05T03:41:43.862Z,99.90
2019-04-05T03:44:12.370Z,99.90
2019-04-05T03:46:55.657Z,99.90
2019-04-05T03:49:11.598Z,99.90
2019-04-05T03:51:40.111Z,99.90
2019-04-05T03:54:08.597Z,99.90
2019-04-05T03:56:38.474Z,99.90
2019-04-05T03:59:07.397Z,99.90
2019-04-05T04:01:35.994Z,99.90
2019-04-05T04:04:05.168Z,99.90
2019-04-05T04:06:33.647Z,99.90
2019-04-05T04:09:02.148Z,99.90
2019-04-05T04:11:30.616Z,99.90
2019-04-05T04:14:00.263Z,99.90
2019-04-05T04:16:29.439Z,99.90
2019-04-05T04:18:58.522Z,99.90
2019-04-05T04:21:36.072Z,99.90
2019-04-05T04:24:09.818Z,99.90
2019-04-05T04:26:39.131Z,99.90
2019-04-05T04:29:08.193Z,99.90
2019-04-05T04:31:36.752Z,99.90
2019-04-05T04:34:06.361Z,99.90
2019-04-05T04:36:34.894Z,99.90
2019-04-05T04:39:04.844Z,99.90
2019-04-05T04:41:33.335Z,99.90
2019-04-05T04:44:01.751Z,99.90
2019-04-05T04:46:30.338Z,99.90
2019-04-05T04:48:58.890Z,99.90
2019-04-05T04:51:27.842Z,99.90
2019-04-05T04:53:57.056Z,99.90
2019-04-05T04:56:25.523Z,99.90
2019-04-05T04:58:54.056Z,99.90
2019-04-05T05:01:22.686Z,99.90
2019-04-05T05:03:51.313Z,99.90
2019-04-05T05:06:19.832Z,99.90
2019-04-05T05:08:48.684Z,99.90
2019-04-05T05:11:18.803Z,99.90
2019-04-05T05:13:47.393Z,99.90
2019-04-05T05:16:16.581Z,99.90
2019-04-05T05:18:45.173Z,99.90
2019-04-05T05:21:13.730Z,99.90
2019-04-05T05:23:42.233Z,99.90
2019-04-05T05:26:10.693Z,99.90
2019-04-05T05:28:39.170Z,99.90
2019-04-05T05:31:08.009Z,99.90
2019-04-05T05:33:36.429Z,99.90
2019-04-05T05:36:05.129Z,99.90
2019-04-05T05:38:33.653Z,99.90
2019-04-05T05:41:02.262Z,99.90
2019-04-05T05:43:30.750Z,99.90
2019-04-05T05:45:59.455Z,99.90
2019-04-05T05:48:30.678Z,99.90
2019-04-05T05:50:58.158Z,99.90
2019-04-05T05:53:27.305Z,99.90
2019-04-05T05:55:55.731Z,99.90
2019-04-05T05:58:25.811Z,99.90
2019-04-05T06:00:54.458Z,99.90
2019-04-05T06:03:22.876Z,99.90
2019-04-05T06:06:03.697Z,99.90
2019-04-05T06:08:21.814Z,99.90
2019-04-05T06:10:50.233Z,99.90
2019-04-05T06:13:18.642Z,99.90
2019-04-05T06:15:47.101Z,99.90
2019-04-05T06:18:15.538Z,99.90
2019-04-05T06:20:43.980Z,99.90
2019-04-05T06:23:12.822Z,99.90
2019-04-05T06:25:41.278Z,99.90
2019-04-05T06:28:09.682Z,99.90
2019-04-05T06:30:38.748Z,99.90
2019-04-05T06:33:07.153Z,99.90
2019-04-05T06:35:35.608Z,99.90
2019-04-05T06:38:04.180Z,99.90
2019-04-05T06:40:40.622Z,99.90
2019-04-05T06:43:02.799Z,99.90
2019-04-05T06:45:31.576Z,99.90
2019-04-05T06:48:00.044Z,99.90
2019-04-05T06:50:28.472Z,99.90
2019-04-05T06:52:57.108Z,99.90
2019-04-05T06:55:25.608Z,99.90
2019-04-05T06:57:54.017Z,99.90
2019-04-05T07:00:29.259Z,99.90
2019-04-05T07:02:58.790Z,99.90
2019-04-05T07:05:30.154Z,99.90
2019-04-05T07:07:58.640Z,99.90
2019-04-05T07:10:27.078Z,99.90
2019-04-05T07:12:55.575Z,99.90
2019-04-05T07:15:24.128Z,99.90
2019-04-05T07:17:52.541Z,99.90
2019-04-05T07:20:23.621Z,99.90
2019-04-05T07:22:51.505Z,99.90
2019-04-05T07:25:19.931Z,99.90
2019-04-05T07:27:48.349Z,99.90
2019-04-05T07:30:17.276Z,99.90
2019-04-05T07:32:45.710Z,99.90
2019-04-05T07:35:14.125Z,99.90
2019-04-05T07:37:42.979Z,99.90
2019-04-05T07:40:11.634Z,99.90
2019-04-05T07:42:40.055Z,99.90
2019-04-05T07:45:08.862Z,99.90
2019-04-05T07:47:37.274Z,99.90
2019-04-05T07:50:09.867Z,99.90
2019-04-05T07:52:38.544Z,99.90
2019-04-05T07:55:08.705Z,99.90
2019-04-05T07:57:38.029Z,99.90
2019-04-05T08:00:12.706Z,99.90
2019-04-05T08:02:41.137Z,99.90
2019-04-05T08:05:09.597Z,99.90
2019-04-05T08:07:42.211Z,99.90
2019-04-05T08:10:10.992Z,99.90
2019-04-05T08:12:39.566Z,99.90
2019-04-05T08:15:08.492Z,99.90
2019-04-05T08:17:36.902Z,99.90
2019-04-05T08:20:07.968Z,99.90
2019-04-05T08:22:36.810Z,99.90
2019-04-05T08:25:05.509Z,99.90
2019-04-05T08:27:33.913Z,99.90
2019-04-05T08:30:02.778Z,99.90
2019-04-05T08:32:31.187Z,99.90
2019-04-05T08:34:59.599Z,99.90
2019-04-05T08:37:29.878Z,99.90
2019-04-05T08:39:58.458Z,99.90
2019-04-05T08:42:26.920Z,99.90
2019-04-05T08:44:55.526Z,99.90
2019-04-05T08:47:23.990Z,99.90
2019-04-05T08:49:52.422Z,99.90
2019-04-05T08:52:20.866Z,99.90
2019-04-05T08:54:49.279Z,99.90
2019-04-05T08:57:17.705Z,99.90
2019-04-05T08:59:46.421Z,99.90
2019-04-05T09:02:14.842Z,99.90
2019-04-05T09:04:43.274Z,99.90
2019-04-05T09:07:11.691Z,99.90
2019-04-05T09:09:40.121Z,99.90
2019-04-05T09:12:08.530Z,99.90
2019-04-05T09:14:37.099Z,99.90
2019-04-05T09:17:05.550Z,99.90
2019-04-05T09:19:34.060Z,99.90
2019-04-05T09:22:02.675Z,99.90
2019-04-05T09:24:31.153Z,99.90
2019-04-05T09:26:59.763Z,99.90
2019-04-05T09:29:28.383Z,99.90
2019-04-05T09:31:56.905Z,99.90
2019-04-05T09:34:25.418Z,99.90
2019-04-05T09:36:54.247Z,99.90
2019-04-05T09:39:22.749Z,99.90
2019-04-05T09:41:51.184Z,99.90
2019-04-05T09:44:23.877Z,99.90
2019-04-05T09:46:52.683Z,99.90
2019-04-05T09:49:21.806Z,99.90
2019-04-05T09:51:56.490Z,99.90
2019-04-05T09:54:24.981Z,99.90
2019-04-05T09:56:53.432Z,99.90
2019-04-05T09:59:22.029Z,99.90
2019-04-05T10:01:50.442Z,99.90
2019-04-05T10:04:18.902Z,99.90
2019-04-05T10:06:47.370Z,99.90
2019-04-05T10:09:15.782Z,99.90
2019-04-05T10:11:44.210Z,99.90
2019-04-05T10:14:12.778Z,99.90
2019-04-05T10:16:41.203Z,99.90
2019-04-05T10:19:09.614Z,99.90
2019-04-05T10:21:38.286Z,99.90
2019-04-05T10:24:06.857Z,99.90
2019-04-05T10:26:35.467Z,99.90
2019-04-05T10:29:03.998Z,99.90
2019-04-05T10:31:32.410Z,99.90
2019-04-05T10:34:00.838Z,99.90
2019-04-05T10:36:29.285Z,99.90
2019-04-05T10:38:57.715Z,99.90
2019-04-05T10:41:26.136Z,99.90
2019-04-05T10:43:54.630Z,99.90
2019-04-05T10:46:23.182Z,99.90
2019-04-05T10:48:51.625Z,99.90
2019-04-05T10:51:20.250Z,99.90
2019-04-05T10:53:48.671Z,99.90
2019-04-05T10:56:17.114Z,99.90
2019-04-05T10:58:45.722Z,99.90
2019-04-05T11:01:14.227Z,99.90
2019-04-05T11:03:42.655Z,99.90
2019-04-05T11:06:11.140Z,99.90
2019-04-05T11:08:39.628Z,99.90
2019-04-05T11:11:08.046Z,99.90
2019-04-05T11:13:36.636Z,99.90
2019-04-05T11:16:05.212Z,99.90
2019-04-05T11:18:33.684Z,99.90
2019-04-05T11:21:02.220Z,99.90
2019-04-05T11:23:30.697Z,99.90
2019-04-05T11:25:59.114Z,99.90
2019-04-05T11:28:27.723Z,99.90
2019-04-05T11:30:56.142Z,99.90
2019-04-05T11:33:24.598Z,99.90
2019-04-05T11:35:53.106Z,99.90
2019-04-05T11:38:24.245Z,99.90
2019-04-05T11:40:52.767Z,99.90
2019-04-05T11:43:26.143Z,99.90
2019-04-05T11:45:53.494Z,99.90
2019-04-05T11:48:22.058Z,99.90
2019-04-05T11:50:50.517Z,99.90
2019-04-05T11:53:21.894Z,99.90
2019-04-05T11:55:49.124Z,99.90
2019-04-05T11:58:17.790Z,99.90
2019-04-05T12:00:47.884Z,99.90
2019-04-05T12:03:17.987Z,99.90
2019-04-05T12:05:46.650Z,99.90
2019-04-05T12:08:15.148Z,99.90
2019-04-05T12:10:43.579Z,99.90
2019-04-05T12:13:12.467Z,99.90
2019-04-05T12:15:40.952Z,98.20
2019-04-05T12:18:09.423Z,99.60
2019-04-05T12:20:49.178Z,99.90
2019-04-05T12:23:08.341Z,99.90
2019-04-05T12:25:36.841Z,97.70
2019-04-05T12:28:07.730Z,97.60
2019-04-05T12:30:35.849Z,98.40
2019-04-05T12:33:13.581Z,98.30
2019-04-05T12:35:37.431Z,97.90
2019-04-05T12:38:06.998Z,97.00
2019-04-05T12:40:34.979Z,98.80
2019-04-05T12:43:03.623Z,99.90
2019-04-05T12:45:32.035Z,99.00
2019-04-05T12:48:00.609Z,99.00
2019-04-05T12:50:29.121Z,99.40
2019-04-05T12:52:57.575Z,96.90
2019-04-05T12:55:26.032Z,98.50
2019-04-05T12:57:56.195Z,99.20
2019-04-05T13:00:26.029Z,99.60
2019-04-05T13:02:57.098Z,99.70
2019-04-05T13:05:25.475Z,99.70
2019-04-05T13:07:53.903Z,99.80
2019-04-05T13:10:25.036Z,99.70
2019-04-05T13:12:56.799Z,99.90
2019-04-05T13:15:22.993Z,99.90
2019-04-05T13:17:51.452Z,99.90
2019-04-05T13:20:20.083Z,99.90
2019-04-05T13:22:48.656Z,99.90
2019-04-05T13:25:17.208Z,99.60
2019-04-05T13:27:45.764Z,99.60
2019-04-05T13:30:18.323Z,99.90
2019-04-05T13:32:44.883Z,99.80
2019-04-05T13:35:16.553Z,99.30
2019-04-05T13:37:43.749Z,97.80
2019-04-05T13:40:12.313Z,95.70
2019-04-05T13:42:40.924Z,93.60
2019-04-05T13:45:09.544Z,94.20
2019-04-05T13:47:39.031Z,95.40
2019-04-05T13:50:10.920Z,95.70
2019-04-05T13:52:41.426Z,96.90
2019-04-05T13:55:10.779Z,96.20
2019-04-05T13:57:40.950Z,93.40
2019-04-05T14:00:10.092Z,92.70
2019-04-05T14:02:38.697Z,91.80
2019-04-05T14:05:07.575Z,92.10
2019-04-05T14:07:36.003Z,92.80
2019-04-05T14:10:10.736Z,92.00
2019-04-05T14:12:37.655Z,91.60
2019-04-05T14:15:10.715Z,92.20
2019-04-05T14:17:38.651Z,93.10
2019-04-05T14:20:09.077Z,94.10
2019-04-05T14:22:37.865Z,94.40
2019-04-05T14:25:08.289Z,94.40
2019-04-05T14:27:36.894Z,94.80
2019-04-05T14:30:06.864Z,96.90
2019-04-05T14:32:35.412Z,96.50
2019-04-05T14:35:07.809Z,96.90
2019-04-05T14:37:35.481Z,96.40
2019-04-05T14:40:06.710Z,95.50
2019-04-05T14:42:35.358Z,96.40
2019-04-05T14:45:05.814Z,96.20
2019-04-05T14:47:34.304Z,95.50
2019-04-05T14:50:02.949Z,97.50
2019-04-05T14:52:31.848Z,97.00
2019-04-05T14:55:00.662Z,97.80
2019-04-05T14:57:29.350Z,97.60
2019-04-05T14:59:57.817Z,97.40
2019-04-05T15:02:26.301Z,98.70
2019-04-05T15:04:54.829Z,99.30
2019-04-05T15:07:23.325Z,99.40
2019-04-05T15:09:54.795Z,99.90
2019-04-05T15:12:22.098Z,99.90
2019-04-05T15:14:50.522Z,99.90
2019-04-05T15:17:18.992Z,99.90
2019-04-05T15:19:47.624Z,99.90
2019-04-05T15:22:16.047Z,99.90
2019-04-05T15:24:44.583Z,99.90
2019-04-05T15:27:15.022Z,99.90
2019-04-05T15:29:43.476Z,99.90
2019-04-05T15:32:11.915Z,99.90
2019-04-05T15:34:40.422Z,99.90
2019-04-05T15:37:08.863Z,99.90
2019-04-05T15:39:37.287Z,99.90
2019-04-05T15:42:06.044Z,99.90
2019-04-05T15:44:34.512Z,99.90
2019-04-05T15:47:02.923Z,99.90
2019-04-05T15:49:31.358Z,99.90
2019-04-05T15:51:59.790Z,99.90
2019-04-05T15:54:29.219Z,99.90
2019-04-05T15:56:58.050Z,99.90
2019-04-05T15:59:26.547Z,99.90
2019-04-05T16:01:54.984Z,99.90
2019-04-05T16:04:23.740Z,99.90
2019-04-05T16:06:52.200Z,99.90
2019-04-05T16:09:20.891Z,99.90
2019-04-05T16:11:49.448Z,99.90
2019-04-05T16:14:17.871Z,99.90
2019-04-05T16:16:46.332Z,99.90
2019-04-05T16:19:15.002Z,99.90
2019-04-05T16:21:43.423Z,99.90
2019-04-05T16:24:11.900Z,99.90
2019-04-05T16:26:40.585Z,99.90
2019-04-05T16:29:09.010Z,99.90
2019-04-05T16:31:37.424Z,99.90
2019-04-05T16:34:06.077Z,99.90
2019-04-05T16:36:34.525Z,99.90
2019-04-05T16:39:04.585Z,99.90
2019-04-05T16:41:33.099Z,99.90
2019-04-05T16:44:01.514Z,99.90
2019-04-05T16:46:29.926Z,99.90
2019-04-05T16:48:58.396Z,99.90
2019-04-05T16:51:26.890Z,99.90
2019-04-05T16:53:59.170Z,99.90
2019-04-05T16:56:28.126Z,99.90
2019-04-05T16:58:56.818Z,99.90
2019-04-05T17:01:27.358Z,99.90
2019-04-05T17:03:55.694Z,99.90
2019-04-05T17:06:24.181Z,99.90
2019-04-05T17:08:52.611Z,99.90
2019-04-05T17:11:21.102Z,99.90
2019-04-05T17:13:49.538Z,99.90
2019-04-05T17:16:17.998Z,99.90
2019-04-05T17:18:46.726Z,99.90
2019-04-05T17:21:15.148Z,99.90
2019-04-05T17:23:43.575Z,99.90
2019-04-05T17:26:12.218Z,99.90
2019-04-05T17:28:41.133Z,99.90
2019-04-05T17:31:09.620Z,99.90
2019-04-05T17:33:38.118Z,99.90
2019-04-05T17:36:06.592Z,99.90
2019-04-05T17:38:35.058Z,99.90
2019-04-05T17:41:03.956Z,99.90
2019-04-05T17:43:32.442Z,99.90
2019-04-05T17:46:00.867Z,99.90
2019-04-05T17:48:29.350Z,99.90
2019-04-05T17:50:57.825Z,99.90
2019-04-05T17:53:26.258Z,99.90
2019-04-05T17:55:54.888Z,99.90
2019-04-05T17:58:26.361Z,99.90
2019-04-05T18:00:54.893Z,99.90
2019-04-05T18:03:23.508Z,99.90
2019-04-05T18:05:51.938Z,99.90
2019-04-05T18:08:20.359Z,99.90
2019-04-05T18:10:48.852Z,99.90
2019-04-05T18:13:17.313Z,99.90
2019-04-05T18:15:52.361Z,99.90
2019-04-05T18:18:16.210Z,99.90
2019-04-05T18:20:44.630Z,99.90
2019-04-05T18:23:24.148Z,99.90
2019-04-05T18:25:43.329Z,99.90
2019-04-05T18:28:11.795Z,99.90
2019-04-05T18:30:40.375Z,99.90
2019-04-05T18:33:08.927Z,99.90
2019-04-05T18:35:37.387Z,99.90
2019-04-05T18:38:05.893Z,99.90
2019-04-05T18:40:40.370Z,99.90
2019-04-05T18:43:04.933Z,99.90
2019-04-05T18:45:34.022Z,99.90
2019-04-05T18:48:02.498Z,99.90
2019-04-05T18:50:30.985Z,99.90
2019-04-05T18:52:59.464Z,99.90
2019-04-05T18:55:28.088Z,99.90
2019-04-05T18:57:56.507Z,99.90
2019-04-05T19:00:24.964Z,99.90
2019-04-05T19:02:53.489Z,99.90
2019-04-05T19:05:21.917Z,99.90
2019-04-05T19:07:50.342Z,99.90
2019-04-05T19:10:18.789Z,99.90
2019-04-05T19:12:47.378Z,99.90
2019-04-05T19:15:15.960Z,99.90
2019-04-05T19:17:44.815Z,99.90
2019-04-05T19:20:13.538Z,99.90
2019-04-05T19:22:41.970Z,99.90
2019-04-05T19:25:10.697Z,99.90
2019-04-05T19:27:39.173Z,99.90
2019-04-05T19:50:11.817Z,99.90
2019-04-05T19:52:40.282Z,99.90
2019-04-05T19:55:09.644Z,99.90
2019-04-05T19:57:38.160Z,99.90
2019-04-05T20:00:07.931Z,99.90
2019-04-05T20:02:36.630Z,99.90
2019-04-05T20:05:07.256Z,99.90
2019-04-05T20:07:38.263Z,99.90
2019-04-05T20:10:07.327Z,99.90
2019-04-05T20:12:35.929Z,99.90
2019-04-05T20:15:07.090Z,99.90
2019-04-05T20:17:35.820Z,99.90
2019-04-05T20:20:06.486Z,99.90
2019-04-05T20:22:34.963Z,99.90
2019-04-05T20:25:05.558Z,99.90
2019-04-05T20:27:34.024Z,99.90
2019-04-05T20:30:03.584Z,99.90
2019-04-05T20:32:32.175Z,99.90
2019-04-05T20:35:00.850Z,99.90
2019-04-05T20:37:29.452Z,99.90
2019-04-05T20:39:57.943Z,99.90
2019-04-05T20:42:26.368Z,99.90
2019-04-05T20:44:54.782Z,99.90
2019-04-05T20:47:23.469Z,99.90
2019-04-05T20:49:51.926Z,99.90
2019-04-05T20:52:20.355Z,99.90
2019-04-05T20:54:48.836Z,99.90
2019-04-05T20:57:17.250Z,99.90
2019-04-05T20:59:45.682Z,99.90
2019-04-05T21:02:14.380Z,99.90
2019-04-05T21:04:42.795Z,99.90
2019-04-05T21:07:11.257Z,99.90
2019-04-05T21:09:39.708Z,99.90
2019-04-05T21:12:08.225Z,99.90
2019-04-05T21:14:36.650Z,99.90
2019-04-05T21:17:05.168Z,99.90
2019-04-05T21:19:33.688Z,99.90
2019-04-05T21:22:02.180Z,99.90
2019-04-05T21:24:36.177Z,99.90
2019-04-05T21:27:00.923Z,99.90
2019-04-05T21:29:30.193Z,99.90
2019-04-05T21:31:58.763Z,99.90
2019-04-05T21:34:27.185Z,99.90
2019-04-05T21:36:55.644Z,99.90
2019-04-05T21:39:24.279Z,99.90
2019-04-05T21:41:52.701Z,99.90
2019-04-05T21:44:21.149Z,99.90
2019-04-05T21:46:50.110Z,99.90
2019-04-05T21:49:18.581Z,99.90
2019-04-05T21:51:46.999Z,99.90
2019-04-05T21:54:21.584Z,99.90
2019-04-05T21:56:49.990Z,99.90
2019-04-05T21:59:18.445Z,99.90
2019-04-05T22:01:47.622Z,99.90
2019-04-05T22:04:16.061Z,99.90
2019-04-05T22:06:44.534Z,99.90
2019-04-05T22:09:13.071Z,99.90
2019-04-05T22:11:41.504Z,99.90
2019-04-05T22:14:09.970Z,99.90
2019-04-05T22:16:38.504Z,99.90
2019-04-05T22:19:06.930Z,99.90
2019-04-05T22:21:35.527Z,99.90
2019-04-05T22:24:04.312Z,99.90
2019-04-05T22:26:32.764Z,99.90
2019-04-05T22:29:01.472Z,99.90
2019-04-05T22:31:33.013Z,99.90
2019-04-05T22:34:01.478Z,99.90
2019-04-05T22:36:29.889Z,99.90
2019-04-05T22:41:39.782Z,99.90
2019-04-05T22:44:08.252Z,99.90
2019-04-05T22:46:36.733Z,99.90
2019-04-05T22:51:43.843Z,99.90
2019-04-05T22:54:12.266Z,99.90
2019-04-05T22:56:40.685Z,99.90
2019-04-05T22:59:09.301Z,99.90
2019-04-05T23:01:37.733Z,99.90
2019-04-05T23:04:06.236Z,99.90
2019-04-05T23:06:34.872Z,99.90
2019-04-05T23:09:05.044Z,99.90
2019-04-05T23:11:33.470Z,99.90
2019-04-05T23:14:02.076Z,99.90
2019-04-05T23:16:31.158Z,99.90
2019-04-05T23:18:59.620Z,99.90
2019-04-05T23:21:28.221Z,99.90
2019-04-05T23:23:56.986Z,99.90
2019-04-05T23:26:26.260Z,99.90
2019-04-05T23:28:55.266Z,99.90
2019-04-05T23:31:24.032Z,99.90
2019-04-05T23:33:52.610Z,99.90
2019-04-05T23:36:21.199Z,99.90
2019-04-05T23:38:49.714Z,99.90
2019-04-05T23:41:18.134Z,99.90
2019-04-05T23:43:46.698Z,99.90
2019-04-05T23:46:15.200Z,99.90
2019-04-05T23:48:43.614Z,99.90
2019-04-05T23:51:12.154Z,99.90
2019-04-05T23:53:40.965Z,99.90
2019-04-05T23:56:12.185Z,99.90
2019-04-05T23:58:40.737Z,99.90
